createdAt,value
2019-05-20T00:00:00.358Z,100.00
2019-05-20T00:02:32.505Z,100.00
2019-05-20T00:05:05.362Z,100.00
2019-05-20T00:07:37.868Z,100.00
2019-05-20T00:10:14.333Z,100.00
2019-05-20T00:12:47.272Z,100.00
2019-05-20T00:15:20.033Z,100.00
2019-05-20T00:17:52.435Z,100.00
2019-05-20T00:20:24.810Z,100.00
2019-05-20T00:22:58.961Z,100.00
2019-05-20T00:25:32.242Z,100.00
2019-05-20T00:28:03.618Z,100.00
2019-05-20T00:30:36.767Z,100.00
2019-05-20T00:33:09.375Z,100.00
2019-05-20T00:35:41.836Z,100.00
2019-05-20T00:38:14.471Z,100.00
2019-05-20T00:40:46.892Z,100.00
2019-05-20T00:43:19.915Z,100.00
2019-05-20T00:45:51.006Z,100.00
2019-05-20T00:48:23.046Z,100.00
2019-05-20T00:50:56.135Z,100.00
2019-05-20T00:53:27.619Z,100.00
2019-05-20T00:56:00.127Z,100.00
2019-05-20T00:58:32.662Z,100.00
2019-05-20T01:01:05.148Z,100.00
2019-05-20T01:03:37.459Z,100.00
2019-05-20T01:06:09.913Z,100.00
2019-05-20T01:08:42.336Z,100.00
2019-05-20T01:11:14.560Z,100.00
2019-05-20T01:13:47.151Z,100.00
2019-05-20T01:16:19.507Z,100.00
2019-05-20T01:18:51.679Z,100.00
2019-05-20T01:21:24.035Z,100.00
2019-05-20T01:23:57.007Z,100.00
2019-05-20T01:26:28.843Z,100.00
2019-05-20T01:29:01.780Z,100.00
2019-05-20T01:31:34.213Z,100.00
2019-05-20T01:34:06.304Z,100.00
2019-05-20T01:36:38.696Z,100.00
2019-05-20T01:39:11.505Z,100.00
2019-05-20T01:41:43.520Z,100.00
2019-05-20T01:44:16.309Z,100.00
2019-05-20T01:46:48.644Z,100.00
2019-05-20T01:49:21.452Z,100.00
2019-05-20T01:51:53.860Z,100.00
2019-05-20T01:54:26.211Z,100.00
2019-05-20T01:56:58.776Z,100.00
2019-05-20T01:59:31.543Z,100.00
2019-05-20T02:02:03.953Z,100.00
2019-05-20T02:04:37.081Z,100.00
2019-05-20T02:07:08.283Z,100.00
2019-05-20T02:09:41.029Z,100.00
2019-05-20T02:12:12.074Z,100.00
2019-05-20T02:14:49.856Z,100.00
2019-05-20T02:17:22.545Z,100.00
2019-05-20T02:19:55.435Z,100.00
2019-05-20T02:22:27.571Z,100.00
2019-05-20T02:24:59.761Z,100.00
2019-05-20T02:27:31.787Z,100.00
2019-05-20T02:30:05.030Z,100.00
2019-05-20T02:32:37.527Z,100.00
2019-05-20T02:35:10.609Z,100.00
2019-05-20T02:37:43.678Z,100.00
2019-05-20T02:40:16.284Z,100.00
2019-05-20T02:42:48.384Z,100.00
2019-05-20T02:45:21.403Z,100.00
2019-05-20T02:47:54.445Z,100.00
2019-05-20T02:50:26.968Z,100.00
2019-05-20T02:52:59.336Z,100.00
2019-05-20T02:55:32.327Z,100.00
2019-05-20T02:58:04.764Z,100.00
2019-05-20T03:00:37.169Z,100.00
2019-05-20T03:03:10.503Z,100.00
2019-05-20T03:05:43.299Z,100.00
2019-05-20T03:08:15.749Z,100.00
2019-05-20T03:10:48.368Z,100.00
2019-05-20T03:13:21.289Z,100.00
2019-05-20T03:15:53.854Z,100.00
2019-05-20T03:18:26.581Z,100.00
2019-05-20T03:20:59.840Z,100.00
2019-05-20T03:23:33.021Z,100.00
2019-05-20T03:26:05.342Z,100.00
2019-05-20T03:28:38.436Z,100.00
2019-05-20T03:31:09.566Z,100.00
2019-05-20T03:33:41.580Z,100.00
2019-05-20T03:36:14.526Z,100.00
2019-05-20T03:38:47.356Z,100.00
2019-05-20T03:41:18.487Z,100.00
2019-05-20T03:43:50.254Z,100.00
2019-05-20T03:46:23.020Z,100.00
2019-05-20T03:48:56.042Z,100.00
2019-05-20T03:51:28.971Z,100.00
2019-05-20T03:54:00.054Z,100.00
2019-05-20T03:56:32.271Z,100.00
2019-05-20T03:59:04.909Z,100.00
2019-05-20T04:01:38.086Z,100.00
2019-05-20T04:04:11.083Z,100.00
2019-05-20T04:06:43.777Z,100.00
2019-05-20T04:09:16.456Z,100.00
2019-05-20T04:11:48.878Z,100.00
2019-05-20T04:14:21.407Z,100.00
2019-05-20T04:16:54.578Z,100.00
2019-05-20T04:19:27.354Z,100.00
2019-05-20T04:22:00.536Z,100.00
2019-05-20T04:24:33.704Z,100.00
2019-05-20T04:27:07.257Z,100.00
2019-05-20T04:29:40.411Z,100.00
2019-05-20T04:32:13.200Z,100.00
2019-05-20T04:34:45.287Z,100.00
2019-05-20T04:37:17.608Z,100.00
2019-05-20T04:39:50.430Z,100.00
2019-05-20T04:42:23.194Z,100.00
2019-05-20T04:44:55.353Z,100.00
2019-05-20T04:47:27.316Z,100.00
2019-05-20T04:49:59.394Z,100.00
2019-05-20T04:52:31.973Z,100.00
2019-05-20T04:55:04.423Z,100.00
2019-05-20T04:57:37.391Z,100.00
2019-05-20T05:00:09.906Z,100.00
2019-05-20T05:02:43.838Z,100.00
2019-05-20T05:05:17.754Z,100.00
2019-05-20T05:07:50.802Z,100.00
2019-05-20T05:10:22.934Z,100.00
2019-05-20T05:12:54.839Z,100.00
2019-05-20T05:15:26.727Z,100.00
2019-05-20T05:17:58.938Z,100.00
2019-05-20T05:20:31.221Z,100.00
2019-05-20T05:23:04.075Z,100.00
2019-05-20T05:25:36.107Z,100.00
2019-05-20T05:28:08.765Z,100.00
2019-05-20T05:30:41.710Z,100.00
2019-05-20T05:33:14.234Z,100.00
2019-05-20T05:35:53.367Z,100.00
2019-05-20T05:38:21.109Z,100.00
2019-05-20T05:40:53.746Z,100.00
2019-05-20T05:43:26.170Z,100.00
2019-05-20T05:45:58.868Z,100.00
2019-05-20T05:48:31.765Z,100.00
2019-05-20T05:51:04.839Z,100.00
2019-05-20T05:53:38.225Z,100.00
2019-05-20T05:56:10.307Z,100.00
2019-05-20T05:58:42.485Z,100.00
2019-05-20T06:01:14.629Z,100.00
2019-05-20T06:03:47.091Z,100.00
2019-05-20T06:06:19.821Z,100.00
2019-05-20T06:08:52.162Z,100.00
2019-05-20T06:11:24.989Z,100.00
2019-05-20T06:13:56.850Z,100.00
2019-05-20T06:16:36.424Z,100.00
2019-05-20T06:19:03.288Z,100.00
2019-05-20T06:21:35.451Z,100.00
2019-05-20T06:24:08.001Z,100.00
2019-05-20T06:26:41.451Z,100.00
2019-05-20T06:29:14.020Z,100.00
2019-05-20T06:31:47.169Z,100.00
2019-05-20T06:34:20.357Z,100.00
2019-05-20T06:36:54.573Z,100.00
2019-05-20T06:39:28.200Z,100.00
2019-05-20T06:42:01.755Z,100.00
2019-05-20T06:44:34.393Z,100.00
2019-05-20T06:47:09.297Z,100.00
2019-05-20T06:49:42.404Z,100.00
2019-05-20T06:52:14.576Z,100.00
2019-05-20T06:54:48.095Z,100.00
2019-05-20T06:57:23.941Z,100.00
2019-05-20T06:59:56.087Z,100.00
2019-05-20T07:02:28.262Z,100.00
2019-05-20T07:05:01.284Z,100.00
2019-05-20T07:07:32.802Z,100.00
2019-05-20T07:10:05.019Z,100.00
2019-05-20T07:12:41.257Z,100.00
2019-05-20T07:15:11.953Z,100.00
2019-05-20T07:17:45.642Z,100.00
2019-05-20T07:20:19.233Z,100.00
2019-05-20T07:22:56.138Z,100.00
2019-05-20T07:25:29.143Z,100.00
2019-05-20T07:28:06.637Z,100.00
2019-05-20T07:30:39.500Z,100.00
2019-05-20T07:33:12.056Z,100.00
2019-05-20T07:35:44.866Z,100.00
2019-05-20T07:38:17.507Z,100.00
2019-05-20T07:40:50.291Z,100.00
2019-05-20T07:43:23.083Z,99.58
2019-05-20T07:45:55.819Z,100.00
2019-05-20T07:48:28.108Z,97.04
2019-05-20T07:51:01.979Z,95.73
2019-05-20T07:53:35.418Z,99.45
2019-05-20T07:56:14.852Z,98.18
2019-05-20T07:58:53.215Z,95.95
2019-05-20T08:01:25.704Z,98.17
2019-05-20T08:03:57.884Z,98.27
2019-05-20T08:06:30.011Z,97.58
2019-05-20T08:09:02.253Z,96.21
2019-05-20T08:11:34.799Z,96.40
2019-05-20T08:14:17.134Z,96.10
2019-05-20T08:16:49.377Z,96.48
2019-05-20T08:19:23.153Z,97.61
2019-05-20T08:21:56.545Z,94.76
2019-05-20T08:24:28.624Z,94.81
2019-05-20T08:27:00.738Z,95.96
2019-05-20T08:29:33.061Z,97.30
2019-05-20T08:32:05.832Z,92.80
2019-05-20T08:34:39.220Z,91.38
2019-05-20T08:37:12.894Z,92.82
2019-05-20T08:39:45.944Z,94.69
2019-05-20T08:42:18.936Z,95.77
2019-05-20T08:44:52.305Z,96.76
2019-05-20T08:47:24.630Z,96.76
2019-05-20T08:49:58.267Z,95.58
2019-05-20T08:52:30.336Z,94.12
2019-05-20T08:55:02.855Z,92.75
2019-05-20T08:57:35.292Z,96.13
2019-05-20T09:00:09.423Z,97.05
2019-05-20T09:02:41.796Z,99.77
2019-05-20T09:05:14.940Z,97.90
2019-05-20T09:08:02.525Z,97.61
2019-05-20T09:10:23.908Z,99.20
2019-05-20T09:12:56.387Z,100.00
2019-05-20T09:15:29.210Z,100.00
2019-05-20T09:18:00.208Z,100.00
2019-05-20T09:20:32.314Z,100.00
2019-05-20T09:23:04.742Z,100.00
2019-05-20T09:25:37.550Z,100.00
2019-05-20T09:28:08.807Z,100.00
2019-05-20T09:30:41.271Z,100.00
2019-05-20T09:33:13.961Z,100.00
2019-05-20T09:35:45.878Z,100.00
2019-05-20T09:38:21.137Z,100.00
2019-05-20T09:40:52.465Z,100.00
2019-05-20T09:43:24.868Z,100.00
2019-05-20T09:46:07.564Z,100.00
2019-05-20T09:48:31.457Z,100.00
2019-05-20T09:51:04.213Z,100.00
2019-05-20T09:53:36.916Z,100.00
2019-05-20T09:56:09.741Z,100.00
2019-05-20T09:58:41.878Z,100.00
2019-05-20T10:01:14.269Z,100.00
2019-05-20T10:03:46.986Z,100.00
2019-05-20T10:06:19.799Z,100.00
2019-05-20T10:08:51.922Z,100.00
2019-05-20T10:11:24.383Z,100.00
2019-05-20T10:13:58.201Z,100.00
2019-05-20T10:16:30.665Z,100.00
2019-05-20T10:19:03.606Z,100.00
2019-05-20T10:21:35.186Z,100.00
2019-05-20T10:24:07.633Z,100.00
2019-05-20T10:26:40.105Z,100.00
2019-05-20T10:29:13.119Z,100.00
2019-05-20T10:31:44.158Z,100.00
2019-05-20T10:34:16.596Z,100.00
2019-05-20T10:36:48.965Z,100.00
2019-05-20T10:39:21.652Z,100.00
2019-05-20T10:41:54.883Z,100.00
2019-05-20T10:44:28.317Z,100.00
2019-05-20T10:47:01.118Z,100.00
2019-05-20T10:49:33.142Z,100.00
2019-05-20T10:52:05.792Z,100.00
2019-05-20T10:54:36.577Z,100.00
2019-05-20T10:57:09.171Z,100.00
2019-05-20T10:59:39.954Z,100.00
2019-05-20T11:02:12.579Z,100.00
2019-05-20T11:04:43.362Z,100.00
2019-05-20T11:07:15.413Z,100.00
2019-05-20T11:09:47.958Z,100.00
2019-05-20T11:12:20.533Z,100.00
2019-05-20T11:14:53.229Z,100.00
2019-05-20T11:17:25.646Z,100.00
2019-05-20T11:19:58.449Z,100.00
2019-05-20T11:22:29.570Z,100.00
2019-05-20T11:25:01.741Z,100.00
2019-05-20T11:27:34.796Z,100.00
2019-05-20T11:30:08.623Z,100.00
2019-05-20T11:32:41.283Z,100.00
2019-05-20T11:35:14.693Z,100.00
2019-05-20T11:37:50.750Z,100.00
2019-05-20T11:40:23.653Z,100.00
2019-05-20T11:42:54.469Z,100.00
2019-05-20T11:45:26.455Z,100.00
2019-05-20T11:47:59.556Z,100.00
2019-05-20T11:50:32.038Z,100.00
2019-05-20T11:53:05.014Z,100.00
2019-05-20T11:55:37.131Z,100.00
2019-05-20T11:58:15.967Z,99.78
2019-05-20T12:00:43.868Z,99.10
2019-05-20T12:03:16.276Z,98.64
2019-05-20T12:05:50.461Z,97.20
2019-05-20T12:08:23.046Z,98.88
2019-05-20T12:10:57.444Z,96.85
2019-05-20T12:13:30.571Z,97.81
2019-05-20T12:16:03.320Z,97.14
2019-05-20T12:18:34.415Z,97.83
2019-05-20T12:21:06.741Z,95.17
2019-05-20T12:23:39.862Z,95.46
2019-05-20T12:26:12.291Z,94.19
2019-05-20T12:28:45.075Z,94.65
2019-05-20T12:31:16.279Z,93.70
2019-05-20T12:33:49.042Z,93.65
2019-05-20T12:36:22.272Z,92.53
2019-05-20T12:38:54.827Z,91.58
2019-05-20T12:41:26.976Z,92.86
2019-05-20T12:44:10.986Z,90.94
2019-05-20T12:46:34.451Z,93.04
2019-05-20T12:49:07.268Z,92.29
2019-05-20T12:51:40.219Z,90.67
2019-05-20T12:54:12.225Z,91.01
2019-05-20T12:56:44.493Z,89.92
2019-05-20T12:59:17.097Z,88.33
2019-05-20T13:01:49.780Z,88.19
2019-05-20T13:04:21.287Z,87.87
2019-05-20T13:06:54.925Z,86.30
2019-05-20T13:09:26.988Z,84.57
2019-05-20T13:11:59.451Z,87.36
2019-05-20T13:14:31.534Z,85.70
2019-05-20T13:17:04.796Z,86.27
2019-05-20T13:19:37.089Z,86.90
2019-05-20T13:22:09.734Z,87.59
2019-05-20T13:24:42.194Z,86.81
2019-05-20T13:27:14.507Z,87.74
2019-05-20T13:29:47.376Z,87.64
2019-05-20T13:32:20.125Z,86.96
2019-05-20T13:34:52.730Z,87.85
2019-05-20T13:37:25.090Z,87.29
2019-05-20T13:39:57.537Z,86.82
2019-05-20T13:42:30.128Z,88.74
2019-05-20T13:45:02.513Z,88.56
2019-05-20T13:47:35.393Z,88.94
2019-05-20T13:50:09.222Z,89.22
2019-05-20T13:52:42.207Z,90.69
2019-05-20T13:55:15.181Z,91.18
2019-05-20T13:57:47.491Z,89.08
2019-05-20T14:00:20.417Z,88.14
2019-05-20T14:02:52.804Z,86.71
2019-05-20T14:05:25.469Z,88.63
2019-05-20T14:07:58.202Z,87.57
2019-05-20T14:10:30.009Z,86.78
2019-05-20T14:13:02.688Z,87.18
2019-05-20T14:15:33.532Z,87.24
2019-05-20T14:18:05.611Z,88.79
2019-05-20T14:20:38.014Z,90.26
2019-05-20T14:23:11.007Z,91.52
2019-05-20T14:25:43.705Z,92.21
2019-05-20T14:28:15.856Z,92.16
2019-05-20T14:30:48.587Z,91.74
2019-05-20T14:33:20.246Z,95.16
2019-05-20T14:35:52.013Z,97.36
2019-05-20T14:38:24.108Z,98.20
2019-05-20T14:40:56.627Z,100.00
2019-05-20T14:43:28.752Z,100.00
2019-05-20T14:46:01.726Z,100.00
2019-05-20T14:48:34.556Z,100.00
2019-05-20T14:51:06.793Z,100.00
2019-05-20T14:53:39.576Z,100.00
2019-05-20T14:56:11.972Z,100.00
2019-05-20T14:58:44.864Z,100.00
2019-05-20T15:01:16.302Z,100.00
2019-05-20T15:03:48.279Z,100.00
2019-05-20T15:06:20.356Z,100.00
2019-05-20T15:08:52.692Z,100.00
2019-05-20T15:11:37.560Z,100.00
2019-05-20T15:14:00.306Z,100.00
2019-05-20T15:16:33.109Z,100.00
2019-05-20T15:19:05.234Z,100.00
2019-05-20T15:21:39.291Z,100.00
2019-05-20T15:24:12.419Z,100.00
2019-05-20T15:26:44.290Z,100.00
2019-05-20T15:29:27.484Z,100.00
2019-05-20T15:31:51.490Z,100.00
2019-05-20T15:34:24.332Z,100.00
2019-05-20T15:36:55.115Z,100.00
2019-05-20T15:39:27.417Z,100.00
2019-05-20T15:41:59.906Z,100.00
2019-05-20T15:44:33.014Z,100.00
2019-05-20T15:47:05.466Z,100.00
2019-05-20T15:49:37.842Z,100.00
2019-05-20T15:52:10.621Z,100.00
2019-05-20T15:54:44.439Z,100.00
2019-05-20T15:57:19.618Z,100.00
2019-05-20T15:59:52.388Z,100.00
2019-05-20T16:02:24.786Z,100.00
2019-05-20T16:04:57.999Z,100.00
2019-05-20T16:07:30.758Z,100.00
2019-05-20T16:10:03.865Z,100.00
2019-05-20T16:12:36.624Z,100.00
2019-05-20T16:15:10.239Z,100.00
2019-05-20T16:17:43.139Z,100.00
2019-05-20T16:20:16.785Z,100.00
2019-05-20T16:22:49.880Z,100.00
2019-05-20T16:25:22.813Z,100.00
2019-05-20T16:27:55.913Z,100.00
2019-05-20T16:30:28.112Z,100.00
2019-05-20T16:33:00.226Z,100.00
2019-05-20T16:35:33.490Z,100.00
2019-05-20T16:38:09.663Z,100.00
2019-05-20T16:40:42.520Z,100.00
2019-05-20T16:43:15.873Z,100.00
2019-05-20T16:45:48.985Z,100.00
2019-05-20T16:48:20.772Z,100.00
2019-05-20T16:50:52.958Z,100.00
2019-05-20T16:53:25.185Z,100.00
2019-05-20T16:55:58.339Z,100.00
2019-05-20T16:58:32.356Z,100.00
2019-05-20T17:01:08.759Z,100.00
2019-05-20T17:03:41.508Z,100.00
2019-05-20T17:06:13.984Z,100.00
2019-05-20T17:08:46.795Z,100.00
2019-05-20T17:11:19.084Z,100.00
2019-05-20T17:13:51.397Z,100.00
2019-05-20T17:16:24.246Z,100.00
2019-05-20T17:18:56.317Z,100.00
2019-05-20T17:21:28.694Z,100.00
2019-05-20T17:24:02.265Z,100.00
2019-05-20T17:26:35.026Z,100.00
2019-05-20T17:29:07.461Z,100.00
2019-05-20T17:31:41.983Z,100.00
2019-05-20T17:34:14.771Z,100.00
2019-05-20T17:36:47.352Z,100.00
2019-05-20T17:39:19.822Z,100.00
2019-05-20T17:41:52.557Z,100.00
2019-05-20T17:44:25.651Z,100.00
2019-05-20T17:46:56.966Z,100.00
2019-05-20T17:49:29.050Z,100.00
2019-05-20T17:52:01.782Z,100.00
2019-05-20T17:54:34.644Z,100.00
2019-05-20T17:57:07.718Z,100.00
2019-05-20T17:59:39.126Z,100.00
2019-05-20T18:02:12.871Z,100.00
2019-05-20T18:04:45.274Z,100.00
2019-05-20T18:07:17.308Z,100.00
2019-05-20T18:09:52.208Z,100.00
2019-05-20T18:12:25.455Z,100.00
2019-05-20T18:14:59.980Z,100.00
2019-05-20T18:17:32.014Z,100.00
2019-05-20T18:20:05.253Z,100.00
2019-05-20T18:22:38.690Z,100.00
2019-05-20T18:25:12.693Z,100.00
2019-05-20T18:27:45.993Z,100.00
2019-05-20T18:30:17.478Z,100.00
2019-05-20T18:32:49.407Z,100.00
2019-05-20T18:35:22.145Z,100.00
2019-05-20T18:37:55.198Z,100.00
2019-05-20T18:40:26.345Z,100.00
2019-05-20T18:42:59.155Z,100.00
2019-05-20T18:45:32.338Z,100.00
2019-05-20T18:48:04.829Z,100.00
2019-05-20T18:50:37.505Z,100.00
2019-05-20T18:53:10.486Z,100.00
2019-05-20T18:55:42.607Z,100.00
2019-05-20T18:58:15.718Z,100.00
2019-05-20T19:00:48.782Z,100.00
2019-05-20T19:03:21.258Z,100.00
2019-05-20T19:05:55.055Z,100.00
2019-05-20T19:08:28.312Z,100.00
2019-05-20T19:10:59.638Z,100.00
2019-05-20T19:13:32.075Z,100.00
2019-05-20T19:16:05.133Z,100.00
2019-05-20T19:18:35.967Z,100.00
2019-05-20T19:21:09.332Z,100.00
2019-05-20T19:23:42.411Z,100.00
2019-05-20T19:26:24.387Z,100.00
2019-05-20T19:28:49.170Z,100.00
2019-05-20T19:31:22.722Z,100.00
2019-05-20T19:33:55.601Z,100.00
2019-05-20T19:36:28.133Z,100.00
2019-05-20T19:39:01.470Z,100.00
2019-05-20T19:41:34.650Z,100.00
2019-05-20T19:44:06.894Z,100.00
2019-05-20T19:46:40.033Z,100.00
2019-05-20T19:49:13.857Z,100.00
2019-05-20T19:51:46.551Z,100.00
2019-05-20T19:54:18.602Z,100.00
2019-05-20T19:56:51.952Z,100.00
2019-05-20T19:59:23.417Z,100.00
2019-05-20T20:01:56.106Z,100.00
2019-05-20T20:04:27.149Z,100.00
2019-05-20T20:07:00.748Z,100.00
2019-05-20T20:09:33.968Z,100.00
2019-05-20T20:12:06.392Z,100.00
2019-05-20T20:14:38.707Z,100.00
2019-05-20T20:17:11.745Z,100.00
2019-05-20T20:19:43.243Z,100.00
2019-05-20T20:22:15.193Z,100.00
2019-05-20T20:24:48.051Z,100.00
2019-05-20T20:27:20.879Z,100.00
2019-05-20T20:29:53.665Z,100.00
2019-05-20T20:32:37.497Z,100.00
2019-05-20T20:35:01.906Z,100.00
2019-05-20T20:37:34.451Z,100.00
2019-05-20T20:40:06.856Z,100.00
2019-05-20T20:42:40.488Z,100.00
2019-05-20T20:45:14.048Z,100.00
2019-05-20T20:47:46.973Z,100.00
2019-05-20T20:50:19.303Z,100.00
2019-05-20T20:52:51.686Z,100.00
2019-05-20T20:55:24.048Z,100.00
2019-05-20T20:57:56.127Z,100.00
2019-05-20T21:00:28.842Z,100.00
2019-05-20T21:03:01.288Z,100.00
2019-05-20T21:05:33.750Z,100.00
2019-05-20T21:08:06.436Z,100.00
2019-05-20T21:10:38.452Z,100.00
2019-05-20T21:13:12.039Z,100.00
2019-05-20T21:15:45.113Z,100.00
2019-05-20T21:18:17.523Z,100.00
2019-05-20T21:20:49.754Z,100.00
2019-05-20T21:23:22.482Z,100.00
2019-05-20T21:25:54.866Z,100.00
2019-05-20T21:28:27.787Z,100.00
2019-05-20T21:31:00.326Z,100.00
2019-05-20T21:33:32.885Z,100.00
2019-05-20T21:36:06.017Z,100.00
2019-05-20T21:38:37.449Z,100.00
2019-05-20T21:41:09.198Z,100.00
2019-05-20T21:43:41.348Z,100.00
2019-05-20T21:46:14.597Z,100.00
2019-05-20T21:48:46.875Z,100.00
2019-05-20T21:51:19.452Z,100.00
2019-05-20T21:53:51.539Z,100.00
2019-05-20T21:56:24.221Z,100.00
2019-05-20T21:58:56.902Z,100.00
2019-05-20T22:01:29.238Z,100.00
2019-05-20T22:04:01.967Z,100.00
2019-05-20T22:06:34.166Z,100.00
2019-05-20T22:09:07.443Z,100.00
2019-05-20T22:11:40.203Z,100.00
2019-05-20T22:14:12.593Z,100.00
2019-05-20T22:16:45.070Z,100.00
2019-05-20T22:19:17.406Z,100.00
2019-05-20T22:22:08.832Z,100.00
2019-05-20T22:24:41.530Z,100.00
2019-05-20T22:27:14.855Z,100.00
2019-05-20T22:29:48.285Z,100.00
2019-05-20T22:32:21.619Z,100.00
2019-05-20T22:34:53.984Z,100.00
2019-05-20T22:37:26.279Z,100.00
2019-05-20T22:39:58.760Z,100.00
2019-05-20T22:42:31.560Z,100.00
2019-05-20T22:45:04.135Z,100.00
2019-05-20T22:47:37.113Z,100.00
2019-05-20T22:50:09.674Z,100.00
2019-05-20T22:52:42.421Z,100.00
2019-05-20T22:55:14.831Z,100.00
2019-05-20T22:57:46.923Z,100.00
2019-05-20T23:00:19.907Z,100.00
2019-05-20T23:02:52.709Z,100.00
2019-05-20T23:05:25.721Z,100.00
2019-05-20T23:07:57.030Z,100.00
2019-05-20T23:10:29.057Z,100.00
2019-05-20T23:13:02.203Z,100.00
2019-05-20T23:15:33.614Z,100.00
2019-05-20T23:18:06.593Z,100.00
2019-05-20T23:20:39.467Z,100.00
2019-05-20T23:23:12.156Z,100.00
2019-05-20T23:25:45.023Z,100.00
2019-05-20T23:28:17.338Z,100.00
2019-05-20T23:30:50.679Z,100.00
2019-05-20T23:33:23.635Z,100.00
2019-05-20T23:35:56.237Z,100.00
2019-05-20T23:38:29.296Z,100.00
2019-05-20T23:41:00.723Z,100.00
2019-05-20T23:43:33.177Z,100.00
2019-05-20T23:46:05.507Z,100.00
2019-05-20T23:48:38.187Z,100.00
2019-05-20T23:51:10.671Z,100.00
2019-05-20T23:53:43.340Z,100.00
2019-05-20T23:56:16.050Z,100.00
2019-05-20T23:58:48.527Z,100.00
